Time;durP1;ratioP1;P1;durP2;ratioP2;P2;SDS_P1;SDS_P2;PMS_P1;PMS_P2;Temp;Humidity;BMP_temperature;BMP_pressure;BME280_temperature;BME280_humidity;BME280_pressure;Samples;Min_cycle;Max_cycle;Signal;HPM_P1;HPM_P2
2023/12/26 00:01:07;;;;;;;2.40;1.73;;;;;;;11.56;54.78;97201.88;5037259;28;20521;-72
2023/12/26 00:03:32;;;;;;;2.93;1.70;;;;;;;11.68;54.22;97193.56;5029316;28;20191;-71
2023/12/26 00:05:57;;;;;;;3.30;1.93;;;;;;;11.56;54.65;97191.38;5036222;28;20179;-71
2023/12/26 00:08:23;;;;;;;4.00;1.27;;;;;;;11.57;54.66;97193.03;5043414;28;20691;-71
2023/12/26 00:10:48;;;;;;;4.07;1.90;;;;;;;11.54;54.93;97183.66;5030315;28;20225;-70
2023/12/26 00:13:14;;;;;;;5.80;1.70;;;;;;;11.60;54.58;97180.41;5027730;28;20178;-72
2023/12/26 00:15:39;;;;;;;3.27;1.50;;;;;;;11.70;54.46;97182.91;5035936;28;20198;-72
2023/12/26 00:18:05;;;;;;;5.13;1.97;;;;;;;11.69;54.47;97183.88;5027917;28;20659;-73
2023/12/26 00:20:30;;;;;;;3.20;1.80;;;;;;;11.55;54.94;97182.69;5024569;28;20321;-72
2023/12/26 00:22:56;;;;;;;2.77;1.70;;;;;;;11.62;54.68;97185.50;5035347;28;20176;-73
2023/12/26 00:25:21;;;;;;;2.10;1.27;;;;;;;11.62;54.73;97183.69;5034173;28;20184;-71
2023/12/26 00:27:47;;;;;;;2.20;1.53;;;;;;;11.62;54.68;97172.38;5040202;28;20179;-71
2023/12/26 00:30:12;;;;;;;4.10;1.90;;;;;;;11.63;54.40;97174.84;5043760;28;20734;-71
2023/12/26 00:32:37;;;;;;;1.77;1.30;;;;;;;11.68;54.20;97177.81;5034542;28;20187;-72
2023/12/26 00:35:04;;;;;;;2.03;1.37;;;;;;;11.65;54.65;97177.31;5031479;28;20197;-71
2023/12/26 00:37:31;;;;;;;4.70;1.80;;;;;;;11.75;54.54;97167.47;5030995;28;20180;-71
2023/12/26 00:39:57;;;;;;;2.63;1.57;;;;;;;11.74;54.41;97180.78;5031767;28;20456;-72
2023/12/26 00:42:22;;;;;;;3.10;1.53;;;;;;;11.63;54.80;97174.00;5042174;28;20836;-72
2023/12/26 00:44:47;;;;;;;3.00;1.53;;;;;;;11.73;54.29;97172.06;5032094;28;20179;-71
2023/12/26 00:47:13;;;;;;;3.03;1.83;;;;;;;11.79;54.33;97167.97;5043303;28;20175;-71
2023/12/26 00:49:38;;;;;;;3.17;1.70;;;;;;;11.78;53.98;97176.84;5039269;28;20185;-70
2023/12/26 00:52:04;;;;;;;4.17;2.03;;;;;;;11.81;54.17;97172.09;5035836;28;20211;-71
2023/12/26 00:54:29;;;;;;;3.43;1.83;;;;;;;11.83;53.92;97169.31;5032426;28;20258;-71
2023/12/26 00:56:55;;;;;;;2.80;1.90;;;;;;;11.82;53.87;97173.75;5043822;28;20592;-72
2023/12/26 00:59:20;;;;;;;2.53;1.40;;;;;;;11.84;54.22;97170.94;5042569;28;20176;-71
2023/12/26 01:01:46;;;;;;;9.00;1.93;;;;;;;11.78;54.17;97182.13;5030554;28;20202;-71
2023/12/26 01:04:11;;;;;;;2.90;1.60;;;;;;;11.75;54.35;97177.97;5032203;28;20560;-71
2023/12/26 01:06:37;;;;;;;4.20;1.67;;;;;;;11.77;54.07;97177.84;5041924;28;20271;-71
2023/12/26 01:09:02;;;;;;;2.20;1.67;;;;;;;11.63;54.60;97174.84;5048428;28;20183;-72
2023/12/26 01:11:28;;;;;;;1.90;1.70;;;;;;;11.70;54.59;97182.06;5029923;28;20203;-71
2023/12/26 01:13:54;;;;;;;6.50;1.40;;;;;;;11.74;54.44;97181.59;5034649;28;20176;-72
2023/12/26 01:16:19;;;;;;;4.57;1.83;;;;;;;11.76;54.93;97184.88;5034063;28;20591;-72
2023/12/26 01:18:45;;;;;;;2.93;1.80;;;;;;;11.73;54.69;97182.56;5030479;28;20418;-72
2023/12/26 01:21:11;;;;;;;4.43;1.97;;;;;;;11.71;54.51;97197.69;5036802;28;20191;-70
2023/12/26 01:23:37;;;;;;;3.30;2.07;;;;;;;11.66;54.49;97197.31;5041094;28;20917;-70
2023/12/26 01:26:03;;;;;;;3.57;1.67;;;;;;;11.64;54.69;97201.91;5036013;28;20243;-73
2023/12/26 01:28:28;;;;;;;2.83;1.80;;;;;;;11.62;54.61;97204.69;5041839;28;20530;-71
2023/12/26 01:30:54;;;;;;;3.60;1.90;;;;;;;11.58;54.47;97213.88;5037613;28;20649;-73
2023/12/26 01:33:20;;;;;;;4.37;1.57;;;;;;;11.57;54.79;97200.91;5033412;28;20180;-72
2023/12/26 01:35:45;;;;;;;2.17;1.50;;;;;;;11.62;55.03;97203.88;5028449;28;20175;-71
2023/12/26 01:38:10;;;;;;;6.33;1.77;;;;;;;11.63;54.81;97200.25;5036861;28;20261;-72
2023/12/26 01:40:40;;;;;;;2.60;1.70;;;;;;;11.58;54.79;97192.06;5043584;28;20583;-73
2023/12/26 01:43:05;;;;;;;3.00;1.60;;;;;;;11.64;54.46;97199.28;5037578;28;20247;-72
2023/12/26 01:45:31;;;;;;;4.47;1.93;;;;;;;11.64;54.27;97197.50;5040378;28;20548;-73
2023/12/26 01:47:59;;;;;;;5.60;1.70;;;;;;;11.64;54.19;97208.00;5034346;28;20209;-73
2023/12/26 01:50:25;;;;;;;4.13;1.90;;;;;;;11.61;54.39;97210.09;5034283;28;20215;-72
2023/12/26 01:52:51;;;;;;;3.67;1.83;;;;;;;11.58;54.42;97211.25;5041036;28;20926;-73
2023/12/26 01:55:17;;;;;;;2.73;1.33;;;;;;;11.60;54.50;97217.16;5040401;28;20489;-72
2023/12/26 01:57:43;;;;;;;5.73;1.63;;;;;;;11.65;54.13;97222.75;5034126;28;20175;-72
2023/12/26 02:00:09;;;;;;;4.00;1.80;;;;;;;11.65;54.19;97219.31;5037552;28;20804;-71
2023/12/26 02:02:34;;;;;;;7.33;1.70;;;;;;;11.68;54.35;97230.31;5039483;28;20183;-71
2023/12/26 02:05:01;;;;;;;2.90;1.70;;;;;;;11.72;54.09;97233.44;5039908;28;20179;-73
2023/12/26 02:07:26;;;;;;;2.37;1.33;;;;;;;11.70;54.14;97227.53;5036022;28;20417;-71
2023/12/26 02:09:52;;;;;;;2.93;1.60;;;;;;;11.61;53.86;97234.56;5040890;28;20406;-71
2023/12/26 02:12:18;;;;;;;3.33;2.00;;;;;;;11.61;54.00;97233.72;5037525;28;20195;-71
2023/12/26 02:14:44;;;;;;;6.90;2.10;;;;;;;11.62;53.83;97233.56;5031791;28;20200;-71
2023/12/26 02:17:14;;;;;;;2.90;1.50;;;;;;;11.48;54.11;97232.34;5028781;28;20473;-71
2023/12/26 02:19:43;;;;;;;2.80;1.40;;;;;;;11.46;54.15;97234.34;5037032;28;20488;-72
2023/12/26 02:22:08;;;;;;;1.67;1.50;;;;;;;11.47;54.17;97228.09;5026594;28;20430;-73
2023/12/26 02:24:34;;;;;;;4.80;1.80;;;;;;;11.46;54.09;97244.84;5039590;28;20851;-72
2023/12/26 02:27:00;;;;;;;2.63;1.70;;;;;;;11.52;54.04;97231.06;5041779;28;20187;-71
2023/12/26 02:29:26;;;;;;;3.30;1.60;;;;;;;11.49;54.12;97231.38;5038554;28;20547;-71
2023/12/26 02:31:54;;;;;;;3.40;1.47;;;;;;;11.52;53.93;97236.31;5032461;28;20555;-72
2023/12/26 02:34:19;;;;;;;2.80;1.50;;;;;;;11.60;53.84;97239.94;5033300;28;20225;-72
2023/12/26 02:36:45;;;;;;;4.03;2.00;;;;;;;11.59;53.50;97236.50;5030514;28;20454;-72
2023/12/26 02:39:11;;;;;;;1.60;1.27;;;;;;;11.61;53.63;97238.97;5032017;28;20168;-73
2023/12/26 02:41:36;;;;;;;2.30;1.33;;;;;;;11.58;53.51;97231.44;5040023;28;20265;-71
2023/12/26 02:44:01;;;;;;;2.23;1.50;;;;;;;11.48;53.68;97232.34;5040655;28;20236;-72
2023/12/26 02:46:27;;;;;;;5.83;1.90;;;;;;;11.53;53.57;97237.13;5031935;28;20183;-73
2023/12/26 02:48:52;;;;;;;4.10;1.63;;;;;;;11.60;53.32;97229.44;5036829;28;20230;-72
2023/12/26 02:51:19;;;;;;;2.70;1.50;;;;;;;11.59;53.16;97227.81;5038925;28;20203;-71
2023/12/26 02:53:44;;;;;;;2.00;1.47;;;;;;;11.52;53.16;97230.25;5041682;28;20187;-71
2023/12/26 02:56:09;;;;;;;5.80;1.90;;;;;;;11.56;52.87;97231.56;5034065;28;20936;-72
2023/12/26 02:58:36;;;;;;;3.50;1.50;;;;;;;11.64;53.01;97243.91;5042796;28;20182;-71
2023/12/26 03:01:01;;;;;;;2.20;1.30;;;;;;;11.70;52.77;97235.41;5036672;28;20317;-72
2023/12/26 03:03:26;;;;;;;2.17;1.30;;;;;;;11.66;52.82;97247.19;5035332;28;20869;-72
2023/12/26 03:05:52;;;;;;;1.73;1.37;;;;;;;11.62;52.39;97240.63;5017953;28;20176;-73
2023/12/26 03:08:17;;;;;;;6.07;1.83;;;;;;;11.68;52.33;97243.44;5022057;28;20183;-71
2023/12/26 03:10:43;;;;;;;1.60;1.40;;;;;;;11.73;52.42;97245.56;5037300;28;20219;-73
2023/12/26 03:13:08;;;;;;;7.33;1.40;;;;;;;11.68;52.20;97237.38;5026776;28;20211;-71
2023/12/26 03:15:34;;;;;;;3.00;1.47;;;;;;;11.63;52.09;97237.00;5028672;28;20195;-71
2023/12/26 03:17:59;;;;;;;2.47;1.30;;;;;;;11.59;52.13;97246.19;5031173;28;20179;-72
2023/12/26 03:20:27;;;;;;;2.73;1.90;;;;;;;11.62;52.08;97238.00;5036266;28;20242;-72
2023/12/26 03:22:52;;;;;;;1.90;1.30;;;;;;;11.61;52.13;97239.81;5038741;28;20175;-70
2023/12/26 03:25:17;;;;;;;6.40;1.50;;;;;;;11.61;52.13;97244.22;5040345;28;20841;-72
2023/12/26 03:27:43;;;;;;;2.70;1.43;;;;;;;11.61;52.21;97250.31;5028912;28;20186;-73
2023/12/26 03:30:09;;;;;;;4.93;1.50;;;;;;;11.51;52.32;97247.78;5034525;28;20199;-73
2023/12/26 03:32:34;;;;;;;2.00;1.50;;;;;;;11.52;52.17;97248.63;5031921;28;20414;-71
2023/12/26 03:35:01;;;;;;;5.40;1.70;;;;;;;11.51;52.26;97250.41;5030636;28;20183;-71
2023/12/26 03:37:26;;;;;;;3.93;1.87;;;;;;;11.44;52.41;97251.19;5040107;28;20175;-73
2023/12/26 03:39:52;;;;;;;3.13;1.63;;;;;;;11.47;52.34;97251.69;5033859;28;20421;-72
2023/12/26 03:42:17;;;;;;;6.20;1.80;;;;;;;11.47;52.09;97254.31;5038393;28;20229;-71
2023/12/26 03:44:46;;;;;;;3.30;1.70;;;;;;;11.44;52.28;97251.19;5033168;28;20179;-71
2023/12/26 03:47:12;;;;;;;4.13;1.87;;;;;;;11.42;52.19;97261.84;5031385;28;20572;-71
2023/12/26 03:49:37;;;;;;;2.83;1.80;;;;;;;11.53;52.05;97266.84;5033079;28;20431;-71
2023/12/26 03:52:03;;;;;;;2.70;1.67;;;;;;;11.51;52.03;97262.72;5035114;28;20241;-71
2023/12/26 03:54:28;;;;;;;2.90;1.40;;;;;;;11.48;51.95;97258.59;5035126;28;20633;-72
2023/12/26 03:56:54;;;;;;;3.00;1.70;;;;;;;11.46;51.99;97259.75;5028392;28;20295;-72
2023/12/26 03:59:19;;;;;;;2.80;1.40;;;;;;;11.45;51.79;97265.97;5033581;28;20711;-71
2023/12/26 04:01:46;;;;;;;2.90;1.70;;;;;;;11.42;51.90;97267.09;5034170;28;20257;-72
2023/12/26 04:04:12;;;;;;;5.20;1.80;;;;;;;11.48;51.85;97269.09;5034964;28;20564;-72
2023/12/26 04:06:37;;;;;;;2.90;1.67;;;;;;;11.49;51.85;97262.88;5035850;28;20421;-71
2023/12/26 04:09:03;;;;;;;2.10;1.33;;;;;;;11.52;51.79;97267.81;5032591;28;20587;-72
2023/12/26 04:11:30;;;;;;;3.17;1.40;;;;;;;11.56;51.45;97251.75;5038256;28;20213;-71
2023/12/26 04:13:55;;;;;;;4.00;1.63;;;;;;;11.43;51.74;97260.88;5032210;28;20267;-73
2023/12/26 04:16:21;;;;;;;3.87;1.80;;;;;;;11.53;51.45;97260.75;5032142;28;20433;-72
2023/12/26 04:18:46;;;;;;;2.33;1.33;;;;;;;11.51;51.39;97258.28;5030531;28;20682;-72
2023/12/26 04:21:12;;;;;;;3.67;1.53;;;;;;;11.58;51.39;97249.81;5021071;28;20284;-72
2023/12/26 04:23:37;;;;;;;2.60;1.40;;;;;;;11.64;51.57;97257.03;5031628;28;20211;-70
2023/12/26 04:26:03;;;;;;;3.20;1.90;;;;;;;11.53;51.39;97263.38;5029776;28;20227;-70
2023/12/26 04:28:28;;;;;;;5.47;1.67;;;;;;;11.62;51.51;97256.38;5028223;28;20528;-73
2023/12/26 04:30:54;;;;;;;2.30;1.57;;;;;;;11.68;51.43;97263.63;5027506;28;20208;-72
2023/12/26 04:33:19;;;;;;;3.93;1.70;;;;;;;11.72;51.11;97253.63;5020927;28;20779;-72
2023/12/26 04:35:45;;;;;;;5.80;2.13;;;;;;;11.76;51.08;97258.41;5030710;28;20595;-71
2023/12/26 04:38:12;;;;;;;4.27;1.73;;;;;;;11.78;51.25;97256.44;5034875;28;20855;-72
2023/12/26 04:40:38;;;;;;;3.30;1.80;;;;;;;11.82;51.20;97268.28;5017949;28;20203;-71
2023/12/26 04:43:07;;;;;;;4.50;1.60;;;;;;;11.77;50.83;97278.41;5025847;28;20434;-72
2023/12/26 04:45:33;;;;;;;4.50;1.60;;;;;;;11.83;50.89;97272.56;5044306;28;20417;-70
2023/12/26 04:47:58;;;;;;;6.53;1.90;;;;;;;11.81;51.31;97276.28;5026767;28;20477;-72
2023/12/26 04:50:23;;;;;;;4.10;1.60;;;;;;;11.81;50.97;97282.38;5029653;28;20334;-72
2023/12/26 04:52:49;;;;;;;6.63;1.63;;;;;;;11.85;50.96;97282.88;5022454;28;20176;-73
2023/12/26 04:55:14;;;;;;;8.30;1.87;;;;;;;11.87;50.89;97280.94;5027505;28;20594;-71
2023/12/26 04:57:40;;;;;;;7.00;2.10;;;;;;;11.88;50.88;97276.47;5034808;28;20190;-72
2023/12/26 05:00:06;;;;;;;2.10;1.70;;;;;;;11.76;51.14;97296.97;5036530;28;20184;-73
2023/12/26 05:02:31;;;;;;;3.83;1.70;;;;;;;11.75;51.17;97288.25;5038618;28;20183;-73
2023/12/26 05:04:57;;;;;;;6.50;2.00;;;;;;;11.74;51.45;97289.22;5034275;28;20819;-72
2023/12/26 05:07:22;;;;;;;6.17;1.70;;;;;;;11.83;50.96;97290.09;5030277;28;20246;-73
2023/12/26 05:09:48;;;;;;;4.77;1.57;;;;;;;11.82;51.19;97293.69;5026733;28;20890;-72
2023/12/26 05:12:13;;;;;;;4.53;1.80;;;;;;;11.79;51.37;97297.47;5039751;28;20203;-70
2023/12/26 05:14:39;;;;;;;6.13;2.30;;;;;;;11.76;51.60;97292.53;5034413;28;20194;-71
2023/12/26 05:17:04;;;;;;;2.50;1.50;;;;;;;11.81;51.43;97300.75;5038657;28;20230;-71
2023/12/26 05:19:30;;;;;;;5.87;1.80;;;;;;;11.87;50.69;97301.94;5040204;28;20675;-72
2023/12/26 05:21:55;;;;;;;3.50;1.93;;;;;;;11.78;51.36;97310.78;5035462;28;20198;-73
2023/12/26 05:24:21;;;;;;;5.40;1.70;;;;;;;11.86;50.86;97310.78;5034612;28;20661;-73
2023/12/26 05:26:46;;;;;;;2.90;1.87;;;;;;;11.77;51.44;97309.13;5020286;28;20180;-73
2023/12/26 05:29:12;;;;;;;5.83;1.90;;;;;;;11.84;51.33;97302.25;5033049;28;20186;-73
2023/12/26 05:31:40;;;;;;;3.30;1.90;;;;;;;11.86;51.38;97295.03;5025237;28;20208;-71
2023/12/26 05:34:10;;;;;;;2.83;1.70;;;;;;;11.71;51.54;97294.81;5013870;28;20211;-71
2023/12/26 05:36:36;;;;;;;5.27;2.00;;;;;;;11.82;51.27;97307.66;5038469;28;20821;-72
2023/12/26 05:39:02;;;;;;;5.40;1.73;;;;;;;11.82;51.28;97305.03;5034879;28;20426;-72
2023/12/26 05:41:28;;;;;;;3.23;1.37;;;;;;;11.74;51.46;97302.34;5037713;28;20461;-72
2023/12/26 05:43:53;;;;;;;3.50;1.77;;;;;;;11.74;51.56;97306.81;5039838;28;20793;-73
2023/12/26 05:46:20;;;;;;;5.27;1.70;;;;;;;11.73;51.28;97305.16;5034464;28;20183;-72
2023/12/26 05:48:46;;;;;;;3.70;1.80;;;;;;;11.75;51.28;97309.25;5033994;28;20664;-71
2023/12/26 05:51:11;;;;;;;6.30;1.60;;;;;;;11.72;51.43;97303.50;5037349;28;20497;-72
2023/12/26 05:53:37;;;;;;;5.20;1.70;;;;;;;11.74;51.60;97317.31;5036477;28;20183;-72
2023/12/26 05:56:03;;;;;;;4.50;1.73;;;;;;;11.70;51.47;97311.56;5029937;28;20667;-72
2023/12/26 05:58:28;;;;;;;5.20;1.80;;;;;;;11.74;51.28;97304.97;5038503;28;20175;-73
2023/12/26 06:00:54;;;;;;;4.90;1.70;;;;;;;11.79;51.15;97315.84;5042618;28;20444;-71
2023/12/26 06:03:19;;;;;;;7.90;1.70;;;;;;;11.71;51.20;97313.19;5032005;28;20176;-71
2023/12/26 06:05:46;;;;;;;3.30;1.80;;;;;;;11.78;51.26;97314.19;5030323;28;20306;-73
2023/12/26 06:08:11;;;;;;;3.67;1.93;;;;;;;11.73;51.33;97313.03;5040224;28;20190;-71
2023/12/26 06:10:37;;;;;;;5.87;2.17;;;;;;;11.62;51.59;97322.84;5029267;28;20453;-72
2023/12/26 06:13:03;;;;;;;1.97;1.60;;;;;;;11.65;51.51;97329.56;5029725;28;20188;-72
2023/12/26 06:15:29;;;;;;;4.17;1.60;;;;;;;11.66;51.70;97329.41;5048921;28;20194;-72
2023/12/26 06:17:54;;;;;;;4.27;1.80;;;;;;;11.63;51.64;97339.38;5036058;28;20426;-73
2023/12/26 06:20:22;;;;;;;4.63;2.23;;;;;;;11.53;51.54;97335.06;5033243;28;20333;-73
2023/12/26 06:22:48;;;;;;;4.73;1.90;;;;;;;11.59;51.50;97324.94;5042758;28;20211;-72
2023/12/26 06:25:13;;;;;;;3.43;1.53;;;;;;;11.67;51.42;97330.22;5030473;28;20455;-74
2023/12/26 06:27:39;;;;;;;5.77;2.10;;;;;;;11.62;51.50;97329.88;5033763;28;20175;-72
2023/12/26 06:30:05;;;;;;;5.93;2.03;;;;;;;11.59;51.75;97323.13;5031508;28;20191;-73
2023/12/26 06:32:31;;;;;;;4.97;1.60;;;;;;;11.38;52.18;97323.50;5043722;28;20792;-73
2023/12/26 06:34:56;;;;;;;8.53;2.10;;;;;;;11.49;51.70;97317.97;5029508;28;20427;-73
2023/12/26 06:37:21;;;;;;;4.83;1.83;;;;;;;11.60;51.40;97313.44;5041071;28;20239;-70
2023/12/26 06:39:47;;;;;;;6.17;2.17;;;;;;;11.58;51.56;97323.31;5038025;28;20221;-71
2023/12/26 06:42:12;;;;;;;6.23;1.73;;;;;;;11.61;51.60;97331.69;5017189;28;20197;-73
2023/12/26 06:44:38;;;;;;;4.50;1.80;;;;;;;11.61;51.50;97342.19;5026633;28;20261;-71
2023/12/26 06:47:03;;;;;;;5.57;2.13;;;;;;;11.70;51.25;97337.81;5029495;28;20177;-71
2023/12/26 06:49:29;;;;;;;5.10;1.80;;;;;;;11.72;51.21;97348.94;5038428;28;20207;-71
2023/12/26 06:51:54;;;;;;;5.83;2.40;;;;;;;11.71;51.68;97347.31;5035945;28;20200;-72
2023/12/26 06:54:20;;;;;;;4.03;2.10;;;;;;;11.74;51.50;97349.63;5017915;28;20179;-71
2023/12/26 06:56:45;;;;;;;5.87;2.30;;;;;;;11.61;51.55;97344.81;5038891;28;20547;-70
2023/12/26 06:59:11;;;;;;;3.10;1.70;;;;;;;11.66;51.79;97341.72;5022836;28;20236;-71
2023/12/26 07:01:36;;;;;;;4.27;1.60;;;;;;;11.66;51.62;97342.53;5045254;28;20210;-71
2023/12/26 07:04:02;;;;;;;6.40;2.10;;;;;;;11.38;51.96;97336.63;5029882;28;20187;-73
2023/12/26 07:06:27;;;;;;;4.23;2.00;;;;;;;11.33;52.35;97337.09;5029294;28;20207;-71
2023/12/26 07:08:53;;;;;;;6.40;2.07;;;;;;;11.49;51.89;97323.22;5037643;28;20187;-71
2023/12/26 07:11:18;;;;;;;7.87;2.43;;;;;;;11.30;52.27;97334.75;5046672;28;20272;-72
2023/12/26 07:13:44;;;;;;;6.07;1.67;;;;;;;11.27;52.71;97342.97;5025648;28;20186;-72
2023/12/26 07:16:09;;;;;;;5.77;3.00;;;;;;;11.58;51.65;97339.06;5041840;28;20219;-70
2023/12/26 07:18:35;;;;;;;5.13;1.67;;;;;;;11.60;51.67;97342.31;5032515;28;20275;-72
2023/12/26 07:21:00;;;;;;;2.43;2.00;;;;;;;11.62;51.71;97343.00;5028628;28;20203;-74
2023/12/26 07:23:26;;;;;;;8.93;2.00;;;;;;;11.59;51.96;97349.38;5031128;28;20206;-74
2023/12/26 07:25:51;;;;;;;7.90;2.07;;;;;;;11.51;52.16;97367.72;5039408;28;20191;-72
2023/12/26 07:28:17;;;;;;;3.30;2.03;;;;;;;11.49;51.91;97365.22;5034927;28;20600;-71
2023/12/26 07:30:43;;;;;;;5.60;2.30;;;;;;;11.57;51.73;97368.91;5033643;28;20834;-71
2023/12/26 07:33:08;;;;;;;8.23;2.27;;;;;;;11.64;51.83;97364.66;5028551;28;20286;-72
2023/12/26 07:35:38;;;;;;;5.97;2.00;;;;;;;11.50;51.94;97366.88;5031266;28;20437;-72
2023/12/26 07:38:04;;;;;;;7.43;1.70;;;;;;;11.60;51.70;97373.81;5043331;28;20596;-72
2023/12/26 07:40:30;;;;;;;1.80;1.70;;;;;;;11.73;51.66;97379.47;5027580;28;20449;-72
2023/12/26 07:42:57;;;;;;;5.93;2.50;;;;;;;11.72;51.38;97380.44;5031098;28;20441;-71
2023/12/26 07:45:24;;;;;;;7.30;2.40;;;;;;;11.63;51.56;97382.22;5036103;28;20419;-72
2023/12/26 07:47:51;;;;;;;3.87;1.83;;;;;;;11.76;51.30;97375.75;5012036;28;20419;-71
2023/12/26 07:50:16;;;;;;;7.77;2.00;;;;;;;11.66;51.47;97388.97;5031671;28;20471;-72
2023/12/26 07:52:42;;;;;;;6.37;2.10;;;;;;;11.68;51.46;97389.63;5022176;28;20989;-72
2023/12/26 07:55:07;;;;;;;4.17;1.73;;;;;;;11.72;51.34;97393.56;5033641;28;20210;-73
2023/12/26 07:57:33;;;;;;;3.53;1.80;;;;;;;11.72;51.38;97408.53;5038132;28;20580;-73
2023/12/26 07:59:58;;;;;;;3.60;1.77;;;;;;;11.75;51.38;97414.28;5041139;28;20183;-74
2023/12/26 08:02:24;;;;;;;6.07;2.40;;;;;;;11.74;51.25;97420.50;5041289;28;20250;-74
2023/12/26 08:04:49;;;;;;;6.70;2.20;;;;;;;11.75;51.20;97418.72;5033767;28;20271;-72
2023/12/26 08:07:15;;;;;;;4.07;2.00;;;;;;;11.74;51.04;97427.56;5027644;28;20250;-72
2023/12/26 08:09:40;;;;;;;3.00;1.70;;;;;;;11.84;51.23;97423.84;5040708;28;20198;-71
2023/12/26 08:12:06;;;;;;;3.93;2.00;;;;;;;11.83;50.96;97416.13;5042041;28;20295;-73
2023/12/26 08:14:31;;;;;;;4.80;1.53;;;;;;;11.72;51.18;97425.09;5041314;28;20198;-72
2023/12/26 08:16:57;;;;;;;4.37;2.03;;;;;;;11.78;51.25;97437.63;5042664;28;20197;-71
2023/12/26 08:19:22;;;;;;;4.33;1.83;;;;;;;11.84;51.20;97436.97;5038684;28;20179;-71
2023/12/26 08:21:48;;;;;;;8.60;2.40;;;;;;;11.90;51.08;97439.97;5034610;28;20187;-71
2023/12/26 08:24:13;;;;;;;4.13;2.20;;;;;;;11.86;50.95;97430.75;5026760;28;20189;-72
2023/12/26 08:26:39;;;;;;;4.43;2.20;;;;;;;11.89;50.74;97439.16;5041336;28;20187;-73
2023/12/26 08:29:04;;;;;;;5.80;2.47;;;;;;;11.84;50.92;97436.97;5043867;28;20218;-72
2023/12/26 08:31:30;;;;;;;4.10;1.90;;;;;;;11.95;50.96;97443.78;5039479;28;20628;-71
2023/12/26 08:33:55;;;;;;;7.10;2.23;;;;;;;12.03;50.52;97452.75;5033427;28;20262;-74
2023/12/26 08:36:21;;;;;;;7.43;2.20;;;;;;;11.94;50.38;97457.09;5032402;28;20203;-72
2023/12/26 08:38:46;;;;;;;4.17;1.97;;;;;;;12.04;50.82;97449.94;5031913;28;20610;-71
2023/12/26 08:41:13;;;;;;;7.80;2.40;;;;;;;12.03;50.60;97448.31;5039405;28;20210;-72
2023/12/26 08:43:38;;;;;;;6.20;1.87;;;;;;;12.08;50.43;97453.09;5041629;28;20194;-72
2023/12/26 08:46:04;;;;;;;4.83;2.00;;;;;;;11.94;50.82;97462.34;5041793;28;20422;-72
2023/12/26 08:48:29;;;;;;;4.10;2.03;;;;;;;12.00;50.94;97467.00;5027980;28;20748;-72
2023/12/26 08:50:55;;;;;;;7.30;2.20;;;;;;;12.06;50.73;97468.16;5035324;28;20289;-72
2023/12/26 08:53:21;;;;;;;4.73;2.07;;;;;;;11.94;50.84;97478.09;5043156;28;20660;-73
2023/12/26 08:55:47;;;;;;;5.93;2.00;;;;;;;12.05;50.72;97474.41;5026790;28;20618;-73
2023/12/26 08:58:13;;;;;;;5.03;1.77;;;;;;;12.16;50.30;97473.31;5039245;28;20207;-72
2023/12/26 09:00:38;;;;;;;4.90;2.07;;;;;;;12.15;50.51;97475.16;5039187;28;20458;-71
2023/12/26 09:03:04;;;;;;;14.47;3.50;;;;;;;12.02;51.07;97478.19;5044980;28;20187;-71
2023/12/26 09:05:29;;;;;;;4.20;2.27;;;;;;;12.14;50.49;97495.31;5034815;28;20831;-73
2023/12/26 09:07:55;;;;;;;8.33;2.20;;;;;;;12.15;50.79;97488.28;5037127;28;20181;-72
2023/12/26 09:10:20;;;;;;;2.50;1.90;;;;;;;12.29;50.60;97484.25;5037092;28;20923;-72
2023/12/26 09:12:46;;;;;;;6.53;1.73;;;;;;;12.35;50.36;97498.56;5036778;28;20222;-72
2023/12/26 09:15:12;;;;;;;4.30;2.00;;;;;;;12.29;50.26;97494.75;5037041;28;20191;-72
2023/12/26 09:17:37;;;;;;;3.97;1.83;;;;;;;12.27;50.38;97505.44;5026646;28;20202;-72
2023/12/26 09:20:03;;;;;;;3.53;1.77;;;;;;;12.42;50.45;97504.81;5048246;28;20240;-72
2023/12/26 09:22:29;;;;;;;4.70;1.90;;;;;;;12.41;50.06;97506.66;5044062;28;20633;-73
2023/12/26 09:24:54;;;;;;;6.00;1.73;;;;;;;12.46;50.47;97511.44;5032110;28;20190;-71
2023/12/26 09:27:20;;;;;;;6.40;1.80;;;;;;;12.49;50.40;97519.00;5027905;28;20648;-71
2023/12/26 09:29:45;;;;;;;3.83;2.00;;;;;;;12.50;49.92;97520.66;5027713;28;20670;-71
2023/12/26 09:32:11;;;;;;;3.30;2.17;;;;;;;12.49;50.37;97526.06;5035663;28;20208;-71
2023/12/26 09:34:36;;;;;;;2.50;1.70;;;;;;;12.43;50.17;97517.00;5033200;28;20585;-72
2023/12/26 09:37:02;;;;;;;6.00;2.00;;;;;;;12.28;51.19;97514.13;5035454;28;20172;-72
2023/12/26 09:39:27;;;;;;;7.10;2.13;;;;;;;12.41;50.79;97527.66;5029894;28;20900;-71
2023/12/26 09:41:55;;;;;;;6.57;1.80;;;;;;;12.42;50.66;97523.22;5036348;28;20253;-71
2023/12/26 09:44:21;;;;;;;4.17;1.70;;;;;;;12.44;50.57;97532.63;5041908;28;20179;-71
2023/12/26 09:46:47;;;;;;;2.97;1.70;;;;;;;12.54;50.38;97531.69;5036928;28;20488;-73
2023/12/26 09:49:12;;;;;;;3.40;1.67;;;;;;;12.49;50.67;97531.31;5033347;28;20210;-71
2023/12/26 09:51:43;;;;;;;4.37;1.60;;;;;;;12.12;51.52;97535.88;5035852;28;20228;-73
2023/12/26 09:54:09;;;;;;;3.97;1.90;;;;;;;12.38;50.86;97535.88;5007206;28;20192;-72
2023/12/26 09:56:39;;;;;;;5.17;1.53;;;;;;;12.54;50.59;97539.56;5031422;28;20422;-72
2023/12/26 09:59:05;;;;;;;6.40;1.67;;;;;;;12.49;50.79;97541.81;5032850;28;20242;-72
2023/12/26 10:01:31;;;;;;;3.20;1.53;;;;;;;12.44;51.09;97556.28;5018021;28;20530;-70
2023/12/26 10:03:57;;;;;;;1.67;1.20;;;;;;;12.50;50.61;97559.25;5028850;28;20206;-73
2023/12/26 10:06:23;;;;;;;3.10;1.30;;;;;;;12.55;50.44;97560.44;5031823;28;20427;-72
2023/12/26 10:08:48;;;;;;;3.20;1.50;;;;;;;12.50;50.66;97559.25;5034399;28;20191;-71
2023/12/26 10:11:14;;;;;;;8.93;1.73;;;;;;;12.60;50.66;97565.25;5028194;28;20215;-74
2023/12/26 10:13:42;;;;;;;3.23;1.80;;;;;;;12.60;50.57;97555.53;5039554;28;20196;-71
2023/12/26 10:16:07;;;;;;;4.93;1.53;;;;;;;12.58;50.33;97561.94;5042958;28;20200;-72
2023/12/26 10:18:33;;;;;;;6.63;1.50;;;;;;;12.72;50.44;97564.00;5059083;28;20963;-71
2023/12/26 10:20:58;;;;;;;2.70;1.67;;;;;;;12.73;50.16;97573.50;5045532;28;20200;-72
2023/12/26 10:23:24;;;;;;;5.77;2.07;;;;;;;12.69;50.51;97566.94;5048078;28;20266;-71
2023/12/26 10:25:49;;;;;;;3.30;1.87;;;;;;;12.78;50.20;97573.06;5047373;28;20204;-72
2023/12/26 10:28:16;;;;;;;5.00;1.60;;;;;;;12.82;50.39;97568.31;5062595;28;20178;-71
2023/12/26 10:30:41;;;;;;;2.73;1.90;;;;;;;12.78;50.29;97566.97;5049961;28;20203;-71
2023/12/26 10:33:07;;;;;;;4.30;1.60;;;;;;;12.64;50.80;97555.22;5033591;28;20468;-72
2023/12/26 10:35:33;;;;;;;7.53;1.73;;;;;;;12.59;50.91;97556.53;5039681;28;20674;-73
2023/12/26 10:37:59;;;;;;;5.50;1.50;;;;;;;12.72;50.71;97560.53;5018912;28;20187;-71
2023/12/26 10:40:25;;;;;;;2.20;1.23;;;;;;;12.82;50.50;97558.59;5025068;28;20435;-72
2023/12/26 10:42:51;;;;;;;2.30;1.57;;;;;;;12.89;50.23;97559.63;5037218;28;20646;-70
2023/12/26 10:45:20;;;;;;;5.20;1.93;;;;;;;12.85;50.68;97557.47;5027084;28;20503;-72
2023/12/26 10:47:48;;;;;;;3.00;1.43;;;;;;;12.89;50.45;97564.88;5028468;28;20570;-72
2023/12/26 10:50:16;;;;;;;3.30;1.67;;;;;;;12.88;50.38;97570.28;5042655;28;20424;-71
2023/12/26 10:53:05;;;;;;;3.80;1.67;;;;;;;12.82;50.69;97552.53;5038165;28;20727;-72
2023/12/26 10:55:32;;;;;;;3.33;1.60;;;;;;;12.86;50.52;97564.34;5028313;28;20561;-72
2023/12/26 10:58:28;;;;;;;3.80;1.53;;;;;;;12.80;50.84;97575.53;5031155;28;20415;-72
2023/12/26 13:51:58;;;;;;;3.47;1.60;;;;;;;13.41;51.94;97643.88;5033926;28;20470;-72
2023/12/26 13:54:24;;;;;;;2.87;1.23;;;;;;;13.43;52.11;97657.72;5033838;28;20438;-74
2023/12/26 13:56:49;;;;;;;1.10;1.00;;;;;;;13.45;52.29;97655.75;5044258;28;20696;-71
2023/12/26 13:59:14;;;;;;;1.30;1.03;;;;;;;13.41;51.96;97646.50;5040154;28;20183;-73
2023/12/26 14:01:40;;;;;;;3.33;1.20;;;;;;;13.39;52.24;97653.69;5038029;28;20287;-72
2023/12/26 14:04:06;;;;;;;3.10;1.53;;;;;;;13.36;52.15;97645.13;5041779;28;20216;-71
2023/12/26 14:06:33;;;;;;;2.27;1.10;;;;;;;13.34;52.22;97646.28;5045283;28;20183;-71
2023/12/26 14:08:58;;;;;;;2.10;1.40;;;;;;;13.34;52.20;97657.66;5043156;28;20222;-71
2023/12/26 14:11:26;;;;;;;2.57;1.10;;;;;;;13.32;52.53;97672.78;5031368;28;20882;-71
2023/12/26 14:13:51;;;;;;;2.20;1.10;;;;;;;13.28;52.45;97655.63;5036710;28;20278;-71
2023/12/26 14:16:22;;;;;;;1.43;1.33;;;;;;;13.28;52.71;97660.91;5040663;28;20532;-71
2023/12/26 14:18:48;;;;;;;2.70;1.83;;;;;;;13.26;52.73;97668.13;5050015;28;20254;-72